Wednesday, November 14, 2018, 1:48 AM EST
Back to Local

KVAY, Mt Holly South Jersey Rgnl

Location: Medford, NJ, United States Lat: 39.933
Local Time: 1:48 AM EST ( 6:48 GMT) Lon: -74.833
Time Zone: US/Eastern Elev: 52 ft

Show me the last for .
Show Decoded

2018-11-14 00:54 METAR KVAY 140554Z AUTO 29007G18KT 260V340 10SM CLR 06/M03 A3021 RMK AO2 SLP229
                 T00561028 10072 20056 53019 =
2018-11-13 23:54 METAR KVAY 140454Z AUTO 29009KT 10SM CLR 06/M01 A3019 RMK AO2 SLP223 T00611011
                 401000061 =
2018-11-13 22:54 METAR KVAY 140354Z AUTO 28007G15KT 10SM CLR 07/00 A3016 RMK AO2 SLP213 T00670000
                 =
2018-11-13 21:54 METAR KVAY 140254Z AUTO 28006KT 10SM CLR 07/01 A3015 RMK AO2 SLP210 T00720011
                 53025 =
2018-11-13 20:54 METAR KVAY 140154Z AUTO 28007KT 10SM OVC095 07/02 A3012 RMK AO2 SLP198 T00720017
                 =
2018-11-13 19:54 METAR KVAY 140054Z AUTO 28006KT 10SM OVC090 07/02 A3010 RMK AO2 SLP192 T00720017
                 =
2018-11-13 18:54 METAR KVAY 132354Z AUTO 31007KT 10SM OVC085 07/02 A3008 RMK AO2 SLP185 T00720022
                 10100 20072 53033 =
2018-11-13 17:54 METAR KVAY 132254Z AUTO 29007KT 270V330 10SM BKN075 OVC090 08/03 A3004 RMK AO2
                 SLP173 T00780033 =
2018-11-13 17:36 METAR KVAY 132236Z AUTO 29007G16KT 10SM SCT028 OVC080 08/03 A3003 RMK AO2
                 T00780033 =
2018-11-13 16:54 METAR KVAY 132154Z AUTO 29007G16KT 10SM BKN026 OVC080 08/04 A3002 RMK AO2 SLP164
                 T00780039 =
2018-11-13 16:25 METAR KVAY 132125Z AUTO 29008G15KT 10SM BKN024 OVC090 08/04 A3000 RMK AO2
                 T00830044 =
2018-11-13 15:54 METAR KVAY 132054Z AUTO 30009KT 10SM OVC090 09/04 A2998 RMK AO2 SLP152 T00890044
                 53022 =
2018-11-13 14:54 METAR KVAY 131954Z AUTO 31005KT 10SM FEW021 BKN100 10/06 A2994 RMK AO2 SLP138
                 T01000061 =
2018-11-13 14:36 METAR KVAY 131936Z AUTO 29010KT 10SM SCT017 BKN100 10/07 A2994 RMK AO2 T01000067
                 =
2018-11-13 14:04 METAR KVAY 131904Z AUTO 29010G18KT 10SM BKN018 10/07 A2994 RMK AO2 T01000067 =
2018-11-13 13:54 METAR KVAY 131854Z AUTO 30009G20KT 10SM SCT016 SCT021 10/07 A2993 RMK AO2 PRESRR
                 SLP135 T01000067 =
2018-11-13 13:25 METAR KVAY 131825Z AUTO 32007KT 270V350 10SM BKN016 10/08 A2990 RMK AO2
                 T01000078 =
2018-11-13 12:54 METAR KVAY 131754Z AUTO 29007G15KT 10SM OVC012 09/08 A2992 RMK AO2 SLP130 60004
                 T00940078 10094 20083 53015 =
2018-11-13 12:08 METAR KVAY 131708Z AUTO 31007KT 10SM OVC011 09/08 A2989 RMK AO2 T00940078 =
2018-11-13 11:54 METAR KVAY 131654Z AUTO VRB06G15KT 10SM OVC009 09/08 A2989 RMK AO2 SLP122
                 T00890078 =
2018-11-13 11:20 METAR KVAY 131620Z AUTO 31008KT 10SM OVC007 09/08 A2987 RMK AO2 CIG 005V010
                 T00940083 =
2018-11-13 10:54 METAR KVAY 131554Z AUTO VRB06KT 10SM OVC005 09/09 A2987 RMK AO2 SLP115 T00940094
                 =
2018-11-13 10:51 METAR KVAY 131551Z AUTO VRB05KT 10SM OVC005 09/09 A2987 RMK AO2 =
2018-11-13 10:38 METAR KVAY 131538Z AUTO 32007G14KT 7SM OVC004 09/09 A2988 RMK AO2 CIG 004V008
                 T00940094 =
2018-11-13 10:31 METAR KVAY 131531Z AUTO 30007KT 2 1/2SM BR OVC004 09/09 A2988 RMK AO2 T00940094
                 =
2018-11-13 09:54 METAR KVAY 131454Z AUTO 31007KT 1 1/2SM BR OVC004 09/09 A2987 RMK AO2 SLP114
                 60004 T00890089 55006 =
2018-11-13 09:01 METAR KVAY 131401Z AUTO 32006KT 1 1/2SM BR OVC003 09/09 A2986 RMK AO2 T00890089
                 =
2018-11-13 08:54 METAR KVAY 131354Z AUTO 33006KT 2SM BR OVC003 09/09 A2985 RMK AO2 RAE32 SLP109
                 P0001 T00890089 =
2018-11-13 08:40 METAR KVAY 131340Z AUTO 32005KT 3SM BR OVC003 09/09 A2986 RMK AO2 RAE32 P0001
                 T00890089 =
2018-11-13 08:24 METAR KVAY 131324Z AUTO 34004KT 2 1/2SM -RA BR BKN004 OVC009 09/09 A2985 RMK AO2
                 P0001 T00890089 =
2018-11-13 08:06 METAR KVAY 131306Z AUTO 00000KT 5SM -RA BR SCT004 BKN008 OVC017 09/09 A2986 RMK
                 AO2 P0000 T00890089 =
2018-11-13 07:54 METAR KVAY 131254Z AUTO VRB04KT 6SM -RA BR BKN003 BKN013 OVC019 09/09 A2986 RMK
                 AO2 SLP111 P0003 T00890089 =
2018-11-13 07:20 METAR KVAY 131220Z AUTO 36007KT 290V050 4SM -RA BR BKN004 OVC007 08/08 A2987 RMK
                 AO2 P0002 T00830083 $ =
2018-11-13 06:54 METAR KVAY 131154Z AUTO 02004KT 2 1/2SM RA BR OVC003 08/08 A2989 RMK AO2 SLP121
                 P0016 60080 70108 T00830083 10083 20061 58048 $ =
2018-11-13 05:54 METAR KVAY 131054Z AUTO 01007KT 2 1/2SM +RA BR OVC003 08/08 A2993 RMK AO2 PRESFR
                 SLP134 P0019 T00780078 $ =
2018-11-13 05:31 METAR KVAY 131031Z AUTO 03005KT 2 1/2SM +RA BR OVC003 08/08 A2997 RMK AO2 PRESFR
                 P0012 T00780078 $ =
2018-11-13 05:12 METAR KVAY 131012Z AUTO 02005KT 3SM +RA BR BKN004 OVC008 08/08 A2999 RMK AO2
                 P0005 T00780078 $ =
2018-11-13 04:54 METAR KVAY 130954Z AUTO 02005KT 2SM +RA BR OVC004 08/08 A3002 RMK AO2 SLP163
                 P0025 T00780078 $ =
2018-11-13 04:35 METAR KVAY 130935Z AUTO 35003KT 2SM +RA BR OVC003 08/08 A3003 RMK AO2 P0015
                 T00780078 $ =
2018-11-13 04:26 METAR KVAY 130926Z AUTO 01003KT 1 3/4SM +RA BR OVC003 08/08 A3002 RMK AO2 P0010
                 T00780078 $ =
2018-11-13 04:17 METAR KVAY 130917Z AUTO 02005KT 2SM RA BR OVC003 07/07 A3002 RMK AO2 P0006
                 T00720072 $ =
2018-11-13 04:07 METAR KVAY 130907Z AUTO 02005KT 3SM RA BR OVC003 07/07 A3003 RMK AO2 P0002
                 T00720072 $ =
2018-11-13 03:54 METAR KVAY 130854Z AUTO 00000KT 2 1/2SM RA BR OVC003 07/07 A3003 RMK AO2 SLP169
                 P0006 60020 T00720072 58053 $ =
2018-11-13 03:27 METAR KVAY 130827Z AUTO 03003KT 3SM -RA BR OVC003 07/07 A3006 RMK AO2 P0004
                 T00670067 $ =
2018-11-13 03:11 METAR KVAY 130811Z AUTO 04003KT 2SM -RA BR OVC004 07/07 A3008 RMK AO2 PRESFR
                 P0002 T00670067 $ =
2018-11-13 02:54 METAR KVAY 130754Z AUTO 02004KT 1 1/2SM RA BR OVC004 07/07 A3011 RMK AO2 PRESFR
                 SLP194 P0009 T00670067 $ =
2018-11-13 02:37 METAR KVAY 130737Z AUTO 02003KT 1 3/4SM RA BR OVC003 07/07 A3013 RMK AO2 PRESFR
                 P0007 T00670067 $ =
2018-11-13 02:19 METAR KVAY 130719Z AUTO 03004KT 2SM +RA BR OVC003 07/07 A3015 RMK AO2 P0003
                 T00670067 $ =
2018-11-13 01:54 METAR KVAY 130654Z AUTO 00000KT 3SM -RA BR OVC003 07/07 A3015 RMK AO2 SLP210
                 P0005 T00670067 $ =

Support USWX by starting your Amazon purchase here.